»·PEaware :: N313KP 1L9-26U

N313KP :: 1L9-26U

FLIGHT INFORMATION

Flight Status: Arrived
Operator: Privately registered:
United States
More flights under this callsign
Pilot: Erik A. (17503)
Aircraft: BEECH AIRCRAFT BONANZA
(BE35)
More flights by this aircraft type
Origin: 1L9 Parowan
United States
Destination: 26U McDermitt State
United States
More flights between these airports :: More routes between these airports
Route: EHK ILC ELY BAM SDO
File this flight plan on PilotEdge
Remarks: Alphabet Challenge WUS Leg #28
Altitude:
(Current/Filed)
10,500ft
Speed:
(Current/Filed)
150kts
Departed: 13-Aug-19 12:51 PM
Arrived: 13-Aug-19 03:07 PM
Distance/Time
Traveled:
335nm/2:16
Distance/Time
To Go:
Arrived

Flight Plot

Page will automatically refresh every two minutes.

Flight plan parsing failed; only flown route is shown


Map Options




Map Legend


Flown Route
Filed Route
Departure Airport
Arrival Airport
Navaid (VOR, NDB)
Fix

Horizontal Profiles

Position Reports

Time Latitude Longitude Heading Altitude Ground
Speed
13-Aug-19 12:30 37.856869 -112.824275 326 5899ft 0kts
13-Aug-19 12:31 37.856869 -112.824275 326 5899ft 0kts
13-Aug-19 12:32 37.856869 -112.824275 326 5899ft 0kts
13-Aug-19 12:33 37.856869 -112.824275 326 5899ft 0kts
13-Aug-19 12:34 37.856869 -112.824275 326 5899ft 0kts
13-Aug-19 12:35 37.856869 -112.824275 326 5899ft 0kts
13-Aug-19 12:36 37.856870 -112.824276 326 5899ft 0kts
13-Aug-19 12:37 37.856871 -112.824277 326 5899ft 0kts
13-Aug-19 12:38 37.856872 -112.824278 326 5899ft 0kts
13-Aug-19 12:39 37.856874 -112.824278 326 5899ft 0kts
13-Aug-19 12:40 37.856875 -112.824279 326 5899ft 0kts
13-Aug-19 12:41 37.856803 -112.824373 126 5899ft 1kts
13-Aug-19 12:42 37.856282 -112.823397 139 5899ft 3kts
13-Aug-19 12:43 37.856296 -112.822022 54 5899ft 10kts
13-Aug-19 12:44 37.858692 -112.817791 54 5899ft 19kts
13-Aug-19 12:45 37.862585 -112.811022 54 5899ft 25kts
13-Aug-19 12:46 37.863815 -112.809333 220 5899ft 0kts
13-Aug-19 12:47 37.863810 -112.809338 220 5899ft 0kts
13-Aug-19 12:48 37.863805 -112.809344 220 5899ft 0kts
13-Aug-19 12:49 37.863636 -112.809337 179 5899ft 6kts
13-Aug-19 12:50 37.854513 -112.826118 239 6036ft 89kts
13-Aug-19 12:51 37.846611 -112.858135 247 6714ft 98kts
13-Aug-19 12:52 37.840260 -112.891662 246 7475ft 99kts
13-Aug-19 12:53 37.830993 -112.923590 243 8320ft 100kts
13-Aug-19 12:54 37.819971 -112.956135 246 9395ft 102kts
13-Aug-19 12:55 37.808294 -112.988233 243 10038ft 100kts
13-Aug-19 12:56 37.796671 -113.022472 245 10485ft 126kts
13-Aug-19 12:57 37.781783 -113.068369 245 10503ft 150kts
13-Aug-19 12:58 37.787197 -113.120341 297 10498ft 170kts
13-Aug-19 12:59 37.811720 -113.171033 300 10499ft 167kts
13-Aug-19 13:00 37.837093 -113.222562 300 10488ft 172kts
13-Aug-19 13:01 37.857392 -113.277440 288 10484ft 171kts
13-Aug-19 13:02 37.875159 -113.332707 290 10480ft 167kts
13-Aug-19 13:03 37.893735 -113.387413 291 10477ft 168kts
13-Aug-19 13:04 37.912727 -113.441747 291 10470ft 168kts
13-Aug-19 13:05 37.932510 -113.498010 291 10462ft 174kts
13-Aug-19 13:06 37.952471 -113.554092 290 10458ft 171kts
13-Aug-19 13:07 37.972890 -113.610569 291 10462ft 174kts
13-Aug-19 13:08 37.992787 -113.666191 291 10471ft 171kts
13-Aug-19 13:09 38.012630 -113.723215 291 10468ft 174kts
13-Aug-19 13:10 38.033426 -113.780132 290 10446ft 175kts
13-Aug-19 13:11 38.053247 -113.837289 290 10450ft 174kts
13-Aug-19 13:12 38.073503 -113.894416 292 10447ft 175kts
13-Aug-19 13:13 38.093190 -113.949520 289 10451ft 168kts
13-Aug-19 13:14 38.113200 -114.005917 292 10446ft 174kts
13-Aug-19 13:15 38.132714 -114.061518 291 10453ft 169kts
13-Aug-19 13:16 38.151919 -114.115570 289 10451ft 166kts
13-Aug-19 13:17 38.171321 -114.170154 291 10452ft 169kts
13-Aug-19 13:18 38.191010 -114.226394 291 10449ft 172kts
13-Aug-19 13:19 38.210285 -114.281659 291 10454ft 169kts
13-Aug-19 13:20 38.230361 -114.338281 291 10458ft 174kts
13-Aug-19 13:21 38.257263 -114.384270 340 10463ft 172kts
13-Aug-19 13:22 38.300830 -114.408562 328 10468ft 170kts
13-Aug-19 13:23 38.345806 -114.427416 346 10467ft 172kts
13-Aug-19 13:24 38.393668 -114.443710 343 10470ft 177kts
13-Aug-19 13:25 38.442281 -114.460595 343 10463ft 179kts
13-Aug-19 13:26 38.490005 -114.476804 344 10471ft 175kts
13-Aug-19 13:27 38.537897 -114.493824 342 10449ft 178kts
13-Aug-19 13:28 38.587125 -114.510857 342 10445ft 181kts
13-Aug-19 13:29 38.636084 -114.528041 343 10452ft 179kts
13-Aug-19 13:30 38.684431 -114.544460 343 10459ft 177kts
13-Aug-19 13:31 38.731247 -114.560940 342 10462ft 173kts
13-Aug-19 13:32 38.779972 -114.577812 343 10465ft 180kts
13-Aug-19 13:33 38.825439 -114.603134 298 10474ft 174kts
13-Aug-19 13:34 38.856317 -114.653060 312 10476ft 176kts
13-Aug-19 13:35 38.897974 -114.687670 334 10481ft 177kts
13-Aug-19 13:36 38.943647 -114.708746 340 10488ft 172kts
13-Aug-19 13:37 38.991637 -114.728124 341 10486ft 179kts
13-Aug-19 13:38 39.040317 -114.746976 341 10494ft 179kts
13-Aug-19 13:40 39.087972 -114.766108 340 10495ft 176kts
13-Aug-19 13:41 39.136107 -114.784447 341 10497ft 178kts
13-Aug-19 13:42 39.184436 -114.803511 342 10501ft 179kts
13-Aug-19 13:43 39.232745 -114.822501 339 10501ft 177kts
13-Aug-19 13:44 39.276347 -114.852829 319 10498ft 176kts
13-Aug-19 13:45 39.314950 -114.891778 319 10504ft 173kts
13-Aug-19 13:46 39.353777 -114.931737 319 10499ft 176kts
13-Aug-19 13:47 39.391331 -114.970209 319 10503ft 169kts
13-Aug-19 13:48 39.430113 -115.009889 319 10494ft 176kts
13-Aug-19 13:49 39.467125 -115.049289 319 10500ft 170kts
13-Aug-19 13:50 39.503537 -115.092022 299 10486ft 174kts
13-Aug-19 13:51 39.526339 -115.145966 271 10538ft 166kts
13-Aug-19 13:52 39.545533 -115.199645 304 10532ft 167kts
13-Aug-19 13:53 39.575277 -115.246135 308 10525ft 167kts
13-Aug-19 13:54 39.606397 -115.291105 309 10520ft 167kts
13-Aug-19 13:55 39.638128 -115.337142 309 10513ft 171kts
13-Aug-19 13:55 39.664441 -115.375014 309 10506ft 168kts
13-Aug-19 13:57 39.702341 -115.430115 309 10499ft 175kts
13-Aug-19 13:58 39.735337 -115.478294 308 10499ft 176kts
13-Aug-19 13:58 39.763305 -115.518904 310 10491ft 179kts
13-Aug-19 14:00 39.801036 -115.572762 310 10496ft 169kts
13-Aug-19 14:00 39.827407 -115.611436 309 10493ft 172kts
13-Aug-19 14:02 39.864682 -115.664940 310 10494ft 169kts
13-Aug-19 14:03 39.897283 -115.713097 309 10489ft 175kts
13-Aug-19 14:03 39.924295 -115.752491 311 10487ft 173kts
13-Aug-19 14:04 39.956983 -115.800676 309 10481ft 178kts
13-Aug-19 14:05 39.982535 -115.853825 292 10478ft 171kts
13-Aug-19 14:06 40.001642 -115.912419 292 10473ft 177kts
13-Aug-19 14:07 40.021266 -115.971864 291 10470ft 178kts
13-Aug-19 14:08 40.040563 -116.030943 292 10570ft 174kts
13-Aug-19 14:09 40.065666 -116.083741 302 10577ft 169kts
13-Aug-19 14:10 40.094309 -116.135565 305 10553ft 178kts
13-Aug-19 14:11 40.124312 -116.186832 306 10549ft 175kts
13-Aug-19 14:12 40.154034 -116.236282 306 10547ft 171kts
13-Aug-19 14:13 40.184580 -116.286281 306 10536ft 178kts
13-Aug-19 14:14 40.215729 -116.337455 306 10527ft 179kts
13-Aug-19 14:15 40.245681 -116.386722 306 10529ft 169kts
13-Aug-19 14:16 40.274848 -116.434642 307 10521ft 167kts
13-Aug-19 14:17 40.304976 -116.484443 306 10517ft 177kts
13-Aug-19 14:18 40.335655 -116.534912 307 10516ft 175kts
13-Aug-19 14:19 40.366101 -116.585378 306 10508ft 176kts
13-Aug-19 14:20 40.396974 -116.636409 306 10508ft 177kts
13-Aug-19 14:21 40.427884 -116.687642 306 10501ft 178kts
13-Aug-19 14:22 40.458134 -116.737770 306 10504ft 172kts
13-Aug-19 14:23 40.488191 -116.787652 306 10503ft 174kts
13-Aug-19 14:24 40.517993 -116.837087 305 10505ft 171kts
13-Aug-19 14:25 40.549911 -116.886157 310 10495ft 177kts
13-Aug-19 14:26 40.582559 -116.932194 309 10501ft 168kts
13-Aug-19 14:27 40.615366 -116.974062 309 10500ft 167kts
13-Aug-19 14:28 40.651837 -117.014292 317 10500ft 172kts
13-Aug-19 14:29 40.688681 -117.055151 317 10498ft 172kts
13-Aug-19 14:30 40.726349 -117.097374 317 10489ft 178kts
13-Aug-19 14:31 40.764370 -117.139828 317 10488ft 178kts
13-Aug-19 14:32 40.802058 -117.181823 317 10489ft 175kts
13-Aug-19 14:33 40.838807 -117.222907 317 10492ft 171kts
13-Aug-19 14:34 40.876591 -117.264977 317 10478ft 178kts
13-Aug-19 14:35 40.914774 -117.307743 317 10479ft 179kts
13-Aug-19 14:36 40.951879 -117.349351 315 10487ft 171kts
13-Aug-19 14:37 40.979412 -117.399496 301 10485ft 168kts
13-Aug-19 14:38 40.997292 -117.454931 266 10486ft 162kts
13-Aug-19 14:39 41.010714 -117.511698 307 10483ft 168kts
13-Aug-19 14:40 41.043752 -117.556626 312 10477ft 170kts
13-Aug-19 14:41 41.078444 -117.602546 312 10475ft 177kts
13-Aug-19 14:42 41.113961 -117.649048 312 10476ft 177kts
13-Aug-19 14:43 41.148452 -117.694189 312 10481ft 172kts
13-Aug-19 14:44 41.183512 -117.740164 313 10478ft 177kts
13-Aug-19 14:45 41.218034 -117.785522 312 10484ft 172kts
13-Aug-19 14:46 41.252870 -117.831107 312 10477ft 176kts
13-Aug-19 14:47 41.287434 -117.876702 312 10483ft 172kts
13-Aug-19 14:48 41.320853 -117.921041 310 10486ft 167kts
13-Aug-19 14:49 41.358227 -117.954727 354 10482ft 174kts
13-Aug-19 14:50 41.408328 -117.960246 353 10477ft 181kts
13-Aug-19 14:51 41.457506 -117.965467 353 10479ft 174kts
13-Aug-19 14:52 41.505533 -117.970402 353 10486ft 173kts
13-Aug-19 14:53 41.553615 -117.952762 20 10477ft 184kts
13-Aug-19 14:54 41.601612 -117.926046 21 10372ft 190kts
13-Aug-19 14:55 41.650835 -117.898340 22 9889ft 192kts
13-Aug-19 14:56 41.699183 -117.871357 23 9256ft 183kts
13-Aug-19 14:57 41.746100 -117.845614 23 8478ft 181kts
13-Aug-19 14:58 41.792456 -117.819774 23 8051ft 180kts
13-Aug-19 14:59 41.834241 -117.785788 38 7567ft 178kts
13-Aug-19 15:00 41.874828 -117.749255 33 7126ft 173kts
13-Aug-19 15:01 41.912537 -117.713193 26 6824ft 158kts
13-Aug-19 15:02 41.956465 -117.703861 4 6474ft 160kts
13-Aug-19 15:03 41.999687 -117.704650 354 6065ft 146kts
13-Aug-19 15:04 42.031687 -117.715728 279 5606ft 101kts
13-Aug-19 15:05 42.012569 -117.723961 176 4553ft 74kts
13-Aug-19 15:06 42.001285 -117.723126 177 4439ft 21kts
13-Aug-19 15:07 41.995204 -117.722701 177 4439ft 19kts
13-Aug-19 15:08 41.993936 -117.720737 152 4439ft 5kts
13-Aug-19 15:09 41.993442 -117.721345 357 4439ft 0kts
13-Aug-19 15:10 41.993443 -117.721345 357 4439ft 0kts
13-Aug-19 15:11 41.993443 -117.721345 357 4439ft 0kts
13-Aug-19 15:12 41.993443 -117.721345 357 4439ft 0kts

Navigation Log

Ident Type
Flight plan parsing failed, navigation log unavailable